createdAt,value
2022-10-18T00:00:17.094Z,101707.78
2022-10-18T00:02:56.492Z,101703.09
2022-10-18T00:05:36.275Z,101710.47
2022-10-18T00:08:16.077Z,101702.72
2022-10-18T00:10:57.904Z,101704.91
2022-10-18T00:13:37.386Z,101700.38
2022-10-18T00:16:17.455Z,101691.34
2022-10-18T00:18:56.892Z,101690.66
2022-10-18T00:21:38.843Z,101695.16
2022-10-18T00:24:18.152Z,101694.50
2022-10-18T00:26:58.045Z,101695.28
2022-10-18T00:29:39.779Z,101689.06
2022-10-18T00:32:22.196Z,101693.28
2022-10-18T00:35:02.115Z,101685.41
2022-10-18T00:37:41.904Z,101695.59
2022-10-18T00:40:23.780Z,101690.06
2022-10-18T00:43:05.184Z,101692.75
2022-10-18T00:46:07.365Z,101697.09
2022-10-18T00:48:48.787Z,101702.28
2022-10-18T00:51:28.762Z,101694.25
2022-10-18T00:54:08.005Z,101697.59
2022-10-18T00:56:47.807Z,101700.63
2022-10-18T00:59:29.640Z,101704.28
2022-10-18T01:02:11.226Z,101696.25
2022-10-18T01:04:50.491Z,101690.56
2022-10-18T01:07:36.418Z,101685.88
2022-10-18T01:10:25.090Z,101675.50
2022-10-18T01:13:31.901Z,101673.69
2022-10-18T01:16:13.668Z,101670.50
2022-10-18T01:18:54.637Z,101662.63
2022-10-18T01:21:37.333Z,101668.47
2022-10-18T01:24:32.664Z,101655.91
2022-10-18T01:27:20.683Z,101648.72
2022-10-18T01:30:08.842Z,101643.03
2022-10-18T01:32:49.669Z,101639.34
2022-10-18T01:35:31.180Z,101628.28
2022-10-18T01:38:11.378Z,101614.06
2022-10-18T01:40:50.304Z,101615.22
2022-10-18T01:43:29.902Z,101614.56
2022-10-18T01:46:09.753Z,101612.88
2022-10-18T01:48:49.493Z,101616.72
2022-10-18T01:51:30.469Z,101619.91
2022-10-18T01:54:11.815Z,101613.22
2022-10-18T01:56:53.480Z,101604.00
2022-10-18T01:59:36.212Z,101606.31
2022-10-18T02:02:18.454Z,101596.72
2022-10-18T02:05:00.583Z,101603.09
2022-10-18T02:07:40.621Z,101601.13
2022-10-18T02:10:24.097Z,101603.25
2022-10-18T02:13:03.800Z,101601.75
2022-10-18T02:15:44.540Z,101597.53
2022-10-18T02:18:24.723Z,101611.94
2022-10-18T02:21:04.009Z,101607.75
2022-10-18T02:23:44.189Z,101613.09
2022-10-18T02:26:22.830Z,101604.41
2022-10-18T02:29:01.903Z,101604.06
2022-10-18T02:31:44.193Z,101592.69
2022-10-18T02:34:24.477Z,101588.47
2022-10-18T02:37:05.640Z,101583.44
2022-10-18T02:39:45.967Z,101585.13
2022-10-18T02:42:24.917Z,101590.63
2022-10-18T02:45:04.999Z,101587.13
2022-10-18T02:47:44.548Z,101594.16
2022-10-18T02:50:24.329Z,101593.31
2022-10-18T02:53:23.317Z,101587.13
2022-10-18T02:56:03.409Z,101581.94
2022-10-18T02:58:44.935Z,101589.97
2022-10-18T03:01:26.426Z,101586.59
2022-10-18T03:04:05.225Z,101576.22
2022-10-18T03:06:43.947Z,101575.38
2022-10-18T03:09:23.752Z,101576.22
2022-10-18T03:12:02.777Z,101575.53
2022-10-18T03:14:43.785Z,101582.91
2022-10-18T03:17:25.139Z,101578.38
2022-10-18T03:20:07.241Z,101573.88
2022-10-18T03:22:45.981Z,101567.13
2022-10-18T03:25:25.810Z,101575.50
2022-10-18T03:28:08.375Z,101571.31
2022-10-18T03:30:47.004Z,101567.78
2022-10-18T03:33:38.682Z,101571.31
2022-10-18T03:36:18.433Z,101568.78
2022-10-18T03:38:58.195Z,101569.13
2022-10-18T03:41:38.055Z,101574.47
2022-10-18T03:44:34.263Z,101562.09
2022-10-18T03:47:16.204Z,101563.94
2022-10-18T03:49:57.352Z,101556.06
2022-10-18T03:52:37.003Z,101554.38
2022-10-18T03:55:17.009Z,101544.00
2022-10-18T03:57:56.665Z,101546.97
2022-10-18T04:00:36.602Z,101539.63
2022-10-18T04:03:16.267Z,101546.28
2022-10-18T04:05:56.896Z,101541.94
2022-10-18T04:08:35.871Z,101543.63
2022-10-18T04:11:16.013Z,101541.28
2022-10-18T04:13:55.472Z,101540.91
2022-10-18T04:16:48.162Z,101555.13
2022-10-18T04:19:27.673Z,101563.31
2022-10-18T04:22:07.928Z,101552.63
2022-10-18T04:24:48.072Z,101554.47
2022-10-18T04:27:27.917Z,101558.28
2022-10-18T04:30:08.436Z,101554.63
2022-10-18T04:32:49.525Z,101558.28
2022-10-18T04:35:28.937Z,101559.59
2022-10-18T04:38:09.164Z,101551.56
2022-10-18T04:40:47.756Z,101546.53
2022-10-18T04:43:26.761Z,101545.53
2022-10-18T04:46:06.677Z,101544.03
2022-10-18T04:48:46.387Z,101546.69
2022-10-18T04:51:26.167Z,101546.69
2022-10-18T04:54:06.049Z,101546.03
2022-10-18T04:56:47.879Z,101546.19
2022-10-18T04:59:27.231Z,101541.00
2022-10-18T05:02:07.053Z,101553.53
2022-10-18T05:04:48.027Z,101547.34
2022-10-18T05:07:27.477Z,101553.84
2022-10-18T05:10:09.049Z,101557.81
2022-10-18T05:12:47.880Z,101552.31
2022-10-18T05:15:27.671Z,101566.50
2022-10-18T05:18:19.289Z,101559.97
2022-10-18T05:21:01.319Z,101556.47
2022-10-18T05:23:40.610Z,101561.81
2022-10-18T05:26:20.239Z,101553.94
2022-10-18T05:29:02.267Z,101562.97
2022-10-18T05:31:41.518Z,101557.78
2022-10-18T05:34:21.916Z,101552.75
2022-10-18T05:37:02.110Z,101555.41
2022-10-18T05:39:42.168Z,101561.91
2022-10-18T05:42:22.285Z,101563.03
2022-10-18T05:45:02.105Z,101566.56
2022-10-18T05:47:43.952Z,101564.75
2022-10-18T05:50:23.377Z,101568.41
2022-10-18T05:53:12.129Z,101567.72
2022-10-18T05:55:52.531Z,101568.88
2022-10-18T05:58:34.425Z,101572.53
2022-10-18T06:01:13.839Z,101577.06
2022-10-18T06:03:53.580Z,101575.38
2022-10-18T06:06:35.473Z,101576.06
2022-10-18T06:09:14.876Z,101571.72
2022-10-18T06:11:55.362Z,101563.69
2022-10-18T06:14:34.697Z,101564.53
2022-10-18T06:17:14.192Z,101568.03
2022-10-18T06:19:54.029Z,101572.38
2022-10-18T06:22:33.771Z,101575.22
2022-10-18T06:25:13.616Z,101577.41
2022-10-18T06:27:53.471Z,101580.47
2022-10-18T06:30:35.234Z,101576.28
2022-10-18T06:33:14.683Z,101573.75
2022-10-18T06:35:57.160Z,101574.47
2022-10-18T06:38:47.657Z,101571.63
2022-10-18T06:41:27.433Z,101565.13
2022-10-18T06:44:13.695Z,101564.28
2022-10-18T06:46:53.795Z,101565.78
2022-10-18T06:49:33.256Z,101562.81
2022-10-18T06:52:12.239Z,101564.47
2022-10-18T06:54:52.274Z,101170.13
2022-10-18T06:57:31.642Z,101168.81
2022-10-18T07:00:13.964Z,101174.81
2022-10-18T07:02:53.046Z,101167.63
2022-10-18T07:08:11.941Z,101173.31
2022-10-18T07:10:54.746Z,101180.00
2022-10-18T07:13:34.832Z,101174.28
2022-10-18T07:16:18.409Z,101174.81
2022-10-18T07:18:57.696Z,101173.47
2022-10-18T07:21:37.370Z,101178.31
2022-10-18T07:24:17.292Z,101182.66
2022-10-18T07:26:56.145Z,101192.03
2022-10-18T07:29:38.054Z,101192.50
2022-10-18T07:32:18.224Z,101203.72
2022-10-18T07:34:58.066Z,101205.75
2022-10-18T07:37:37.803Z,101204.22
2022-10-18T07:40:17.710Z,101201.34
2022-10-18T07:42:57.446Z,101203.38
2022-10-18T07:48:21.849Z,101215.38
2022-10-18T07:51:03.675Z,101210.38
2022-10-18T07:53:45.089Z,101204.81
2022-10-18T07:56:25.558Z,101203.47
2022-10-18T07:59:06.260Z,101211.16
2022-10-18T08:01:45.771Z,101210.09
2022-10-18T08:04:58.069Z,101212.88
2022-10-18T08:07:38.833Z,101220.53
2022-10-18T08:10:17.681Z,101226.81
2022-10-18T08:12:59.475Z,101215.31
2022-10-18T08:15:38.857Z,101217.97
2022-10-18T08:18:20.734Z,101229.94
2022-10-18T08:21:01.496Z,101252.59
2022-10-18T08:23:42.797Z,101270.28
2022-10-18T08:26:23.762Z,101294.56
2022-10-18T08:29:23.351Z,101297.59
2022-10-18T08:32:22.542Z,101333.84
2022-10-18T08:35:14.211Z,101359.31
2022-10-18T08:37:53.916Z,101383.41
2022-10-18T08:40:34.651Z,101414.59
2022-10-18T08:43:20.742Z,101438.41
2022-10-18T08:46:01.391Z,101448.66
2022-10-18T08:48:43.524Z,101470.97
2022-10-18T08:51:23.881Z,101480.53
2022-10-18T08:54:08.805Z,101503.50
2022-10-18T08:56:57.161Z,101522.78
2022-10-18T08:59:39.038Z,101701.88
2022-10-18T09:02:20.052Z,101706.91
2022-10-18T09:04:58.631Z,101717.34
2022-10-18T09:07:57.666Z,101720.84
2022-10-18T09:10:40.052Z,101738.66
2022-10-18T09:13:24.064Z,101737.81
2022-10-18T09:16:03.665Z,101738.13
2022-10-18T09:18:49.632Z,101752.25
2022-10-18T09:21:30.758Z,101761.81
2022-10-18T09:24:12.128Z,101764.47
2022-10-18T09:26:56.929Z,101752.53
2022-10-18T09:29:45.131Z,101753.88
2022-10-18T09:32:28.165Z,101753.53
2022-10-18T09:35:14.500Z,101762.06
2022-10-18T09:37:56.505Z,101764.94
2022-10-18T09:40:37.209Z,101776.03
2022-10-18T09:43:30.725Z,101774.16
2022-10-18T09:46:12.570Z,101782.72
2022-10-18T09:48:52.790Z,101796.13
2022-10-18T09:51:35.056Z,101798.13
2022-10-18T09:54:23.117Z,101802.34
2022-10-18T09:57:05.201Z,101811.88
2022-10-18T09:59:46.928Z,101820.44
2022-10-18T10:02:28.170Z,101817.72
2022-10-18T10:05:07.236Z,101828.66
2022-10-18T10:07:49.956Z,101840.75
2022-10-18T10:10:30.802Z,101850.13
2022-10-18T10:13:16.705Z,101851.78
2022-10-18T10:15:57.488Z,101862.50
2022-10-18T10:18:37.525Z,101870.00
2022-10-18T10:21:16.577Z,101866.88
2022-10-18T10:23:56.889Z,101875.38
2022-10-18T10:26:37.791Z,101892.13
2022-10-18T10:29:44.520Z,101903.63
2022-10-18T10:32:24.276Z,101908.94
2022-10-18T10:35:03.742Z,101912.28
2022-10-18T10:37:43.429Z,101917.47
2022-10-18T10:40:27.677Z,101925.94
2022-10-18T10:43:33.062Z,101937.16
2022-10-18T10:46:18.848Z,101952.84
2022-10-18T10:49:21.035Z,101953.25
2022-10-18T10:52:15.376Z,101957.56
2022-10-18T10:55:06.100Z,101955.16
2022-10-18T10:57:58.486Z,101969.06
2022-10-18T11:00:38.861Z,101985.22
2022-10-18T11:03:29.207Z,102002.66
2022-10-18T11:06:10.877Z,102018.75
2022-10-18T11:08:52.764Z,102033.47
2022-10-18T11:11:31.992Z,102029.81
2022-10-18T11:14:26.449Z,102035.28
2022-10-18T11:17:09.039Z,102057.78
2022-10-18T11:19:56.020Z,102055.44
2022-10-18T11:22:37.242Z,102059.75
2022-10-18T11:25:17.872Z,102059.50
2022-10-18T11:27:57.732Z,102066.28
2022-10-18T11:30:41.824Z,102061.66
2022-10-18T11:33:33.672Z,102062.84
2022-10-18T11:36:25.014Z,102075.16
2022-10-18T11:39:06.151Z,102075.59
2022-10-18T11:41:47.107Z,102070.03
2022-10-18T11:44:27.238Z,102076.28
2022-10-18T11:47:21.447Z,102084.16
2022-10-18T11:50:03.391Z,102068.56
2022-10-18T11:52:45.399Z,102089.34
2022-10-18T11:55:32.988Z,102084.00
2022-10-18T11:58:23.474Z,102085.03
2022-10-18T12:01:06.910Z,102089.28
2022-10-18T12:03:54.449Z,102084.06
2022-10-18T12:06:35.430Z,102091.19
2022-10-18T12:09:18.495Z,102100.59
2022-10-18T12:11:59.629Z,102094.94
2022-10-18T12:14:39.371Z,102096.16
2022-10-18T12:17:41.635Z,102091.00
2022-10-18T12:20:24.833Z,102099.16
2022-10-18T12:23:04.225Z,102093.69
2022-10-18T12:25:44.369Z,102099.75
2022-10-18T12:28:31.302Z,102095.34
2022-10-18T12:31:14.557Z,102093.91
2022-10-18T12:33:55.477Z,102096.41
2022-10-18T12:36:40.547Z,102096.59
2022-10-18T12:39:32.368Z,102107.50
2022-10-18T12:42:26.064Z,102112.31
2022-10-18T12:45:06.421Z,102109.38
2022-10-18T12:47:44.375Z,102109.34
2022-10-18T12:50:29.533Z,102114.81
2022-10-18T12:53:17.321Z,102114.63
2022-10-18T12:55:57.557Z,102113.34
2022-10-18T12:58:38.227Z,102115.44
2022-10-18T13:01:19.240Z,102111.91
2022-10-18T13:04:00.441Z,102118.56
2022-10-18T13:06:53.443Z,102118.31
2022-10-18T13:09:35.233Z,102115.81
2022-10-18T13:12:47.434Z,102109.94
2022-10-18T13:15:38.200Z,102107.97
2022-10-18T13:18:19.880Z,102111.84
2022-10-18T13:21:01.732Z,102111.72
2022-10-18T13:23:47.696Z,102103.72
2022-10-18T13:26:31.974Z,102109.34
2022-10-18T13:29:17.484Z,102106.34
2022-10-18T13:31:57.927Z,102108.28
2022-10-18T13:34:39.086Z,102111.72
2022-10-18T13:37:23.733Z,102119.50
2022-10-18T13:40:16.891Z,102118.41
2022-10-18T13:42:59.323Z,102117.00
2022-10-18T13:45:54.341Z,102120.44
2022-10-18T13:48:50.295Z,102137.56
2022-10-18T13:51:38.659Z,102130.19
2022-10-18T13:54:30.907Z,102137.69
2022-10-18T13:57:13.961Z,102139.47
2022-10-18T14:00:00.917Z,102140.97
2022-10-18T14:02:51.972Z,102134.00
2022-10-18T14:05:38.194Z,102143.38
2022-10-18T14:08:18.592Z,102137.84
2022-10-18T14:11:02.791Z,102139.41
2022-10-18T14:13:44.453Z,102145.38
2022-10-18T14:16:28.283Z,102141.03
2022-10-18T14:19:14.939Z,102143.59
2022-10-18T14:21:56.810Z,102144.09
2022-10-18T14:24:38.943Z,102145.13
2022-10-18T14:27:20.172Z,102148.13
2022-10-18T14:30:10.325Z,102147.13
2022-10-18T14:32:50.268Z,102144.25
2022-10-18T14:35:33.471Z,102149.44
2022-10-18T14:38:14.724Z,102143.06
2022-10-18T14:40:57.705Z,102149.59
2022-10-18T14:43:39.189Z,102151.94
2022-10-18T14:46:23.884Z,102143.00
2022-10-18T14:49:05.351Z,102145.69
2022-10-18T14:51:45.053Z,102151.47
2022-10-18T14:54:29.141Z,102151.31
2022-10-18T14:57:15.196Z,102145.03
2022-10-18T14:59:58.039Z,102147.53
2022-10-18T15:02:39.404Z,102143.28
2022-10-18T15:05:20.832Z,102140.19
2022-10-18T15:08:01.011Z,102144.69
2022-10-18T15:10:40.836Z,102145.91
2022-10-18T15:13:20.643Z,102133.31
2022-10-18T15:15:59.679Z,102136.09
2022-10-18T15:18:39.673Z,102135.56
2022-10-18T15:21:30.291Z,102124.97
2022-10-18T15:24:20.742Z,102128.84
2022-10-18T15:27:02.952Z,102129.63
2022-10-18T15:29:43.622Z,102125.50
2022-10-18T15:32:26.685Z,102123.28
2022-10-18T15:35:13.438Z,102114.84
2022-10-18T15:37:53.063Z,102117.47
2022-10-18T15:40:35.073Z,102120.91
2022-10-18T15:43:31.721Z,102115.31
2022-10-18T15:46:24.656Z,102123.56
2022-10-18T15:49:25.004Z,102113.63
2022-10-18T15:52:24.338Z,102114.69
2022-10-18T15:55:04.284Z,102113.91
2022-10-18T15:57:43.751Z,102107.44
2022-10-18T16:00:23.504Z,102106.34
2022-10-18T16:03:18.452Z,102101.19
2022-10-18T16:06:04.167Z,102098.94
2022-10-18T16:08:48.365Z,102091.53
2022-10-18T16:11:27.002Z,102084.22
2022-10-18T16:14:09.150Z,102078.28
2022-10-18T16:16:48.726Z,102078.31
2022-10-18T16:19:28.351Z,102082.88
2022-10-18T16:22:10.841Z,102075.03
2022-10-18T16:24:52.547Z,102071.38
2022-10-18T16:27:32.612Z,102065.78
2022-10-18T16:30:15.622Z,102078.47
2022-10-18T16:32:59.507Z,102069.66
2022-10-18T16:35:40.410Z,102061.50
2022-10-18T16:38:26.691Z,102060.53
2022-10-18T16:41:11.361Z,102055.31
2022-10-18T16:44:04.449Z,102059.56
2022-10-18T16:46:43.853Z,102051.53
2022-10-18T16:49:24.680Z,102061.41
2022-10-18T16:52:26.289Z,102066.72
2022-10-18T16:55:06.118Z,102059.00
2022-10-18T16:57:45.406Z,102065.16
2022-10-18T17:00:25.267Z,102062.50
2022-10-18T17:03:07.014Z,102058.25
2022-10-18T17:05:48.526Z,102061.59
2022-10-18T17:08:41.681Z,102063.56
2022-10-18T17:11:21.701Z,102068.56
2022-10-18T17:14:12.635Z,102070.81
2022-10-18T17:16:55.922Z,102071.59
2022-10-18T17:19:37.055Z,102075.91
2022-10-18T17:22:16.865Z,102081.94
2022-10-18T17:25:18.361Z,102087.34
2022-10-18T17:27:57.264Z,102095.03
2022-10-18T17:30:39.279Z,102085.97
2022-10-18T17:33:24.505Z,102081.44
2022-10-18T17:36:07.024Z,102083.63
2022-10-18T17:38:48.193Z,102085.00
2022-10-18T17:41:29.500Z,102091.16
2022-10-18T17:44:08.189Z,102087.41
2022-10-18T17:46:47.248Z,102096.19
2022-10-18T17:49:47.759Z,102099.63
2022-10-18T17:52:29.524Z,102107.41
2022-10-18T17:55:09.323Z,102102.56
2022-10-18T17:57:48.732Z,102097.75
2022-10-18T18:00:30.576Z,102092.59
2022-10-18T18:03:09.207Z,102088.47
2022-10-18T18:05:48.194Z,102091.63
2022-10-18T18:08:27.999Z,102084.13
2022-10-18T18:11:07.978Z,102086.31
2022-10-18T18:13:47.647Z,102093.00
2022-10-18T18:16:28.023Z,102090.81
2022-10-18T18:19:10.076Z,102089.38
2022-10-18T18:21:53.463Z,102096.16
2022-10-18T18:24:33.264Z,102098.22
2022-10-18T18:27:15.083Z,102099.78
2022-10-18T18:29:54.463Z,102102.22
2022-10-18T18:32:36.543Z,102100.03
2022-10-18T18:35:15.759Z,102102.22
2022-10-18T18:37:55.475Z,102108.16
2022-10-18T18:40:37.240Z,102112.84
2022-10-18T18:43:23.145Z,102110.53
2022-10-18T18:46:03.017Z,102107.41
2022-10-18T18:48:57.624Z,102110.41
2022-10-18T18:51:39.599Z,102116.19
2022-10-18T18:54:21.988Z,102116.19
2022-10-18T18:57:05.235Z,102107.97
2022-10-18T18:59:44.953Z,102111.97
2022-10-18T19:02:24.725Z,102104.19
2022-10-18T19:05:04.855Z,102107.22
2022-10-18T19:07:46.267Z,102107.94
2022-10-18T19:10:24.916Z,102104.31
2022-10-18T19:13:03.987Z,102113.25
2022-10-18T19:15:42.926Z,102115.78
2022-10-18T19:18:23.914Z,102118.66
2022-10-18T19:21:06.762Z,102119.00
2022-10-18T19:23:47.332Z,102121.53
2022-10-18T19:26:32.956Z,102133.47
2022-10-18T19:29:13.477Z,102131.78
2022-10-18T19:31:52.911Z,102144.34
2022-10-18T19:34:34.658Z,102138.41
2022-10-18T19:37:16.027Z,102149.88
2022-10-18T19:39:58.476Z,102157.13
2022-10-18T19:42:38.151Z,102164.13
2022-10-18T19:45:17.587Z,102163.41
2022-10-18T19:48:17.841Z,102172.84
2022-10-18T19:50:57.998Z,102176.56
2022-10-18T19:54:20.037Z,102185.38
2022-10-18T19:56:59.847Z,102183.47
2022-10-18T20:02:24.324Z,102195.56
2022-10-18T20:05:04.179Z,102188.06
2022-10-18T20:07:45.213Z,102186.88
2022-10-18T20:10:25.245Z,102185.94
2022-10-18T20:13:05.025Z,102194.31
2022-10-18T20:15:44.826Z,102197.44
2022-10-18T20:18:24.657Z,102194.34
2022-10-18T20:21:06.635Z,102205.59
2022-10-18T20:23:45.072Z,102197.63
2022-10-18T20:26:25.329Z,102208.13
2022-10-18T20:29:04.858Z,102205.72
2022-10-18T20:31:45.761Z,102209.75
2022-10-18T20:34:26.012Z,102205.41
2022-10-18T20:37:04.127Z,102207.47
2022-10-18T20:39:43.148Z,102192.38
2022-10-18T20:42:24.137Z,102194.78
2022-10-18T20:47:48.976Z,102189.22
2022-10-18T20:50:28.942Z,102186.84
2022-10-18T20:53:10.561Z,102187.81
2022-10-18T20:55:49.995Z,102189.25
2022-10-18T20:58:31.763Z,102188.53
2022-10-18T21:01:11.603Z,102181.88
2022-10-18T21:03:51.361Z,102177.06
2022-10-18T21:06:33.521Z,102173.44
2022-10-18T21:09:14.975Z,102162.66
2022-10-18T21:11:56.093Z,102170.41
2022-10-18T21:14:35.141Z,102174.28
2022-10-18T21:17:14.849Z,102167.03
2022-10-18T21:19:55.632Z,102176.22
2022-10-18T21:22:34.754Z,102174.41
2022-10-18T21:25:15.601Z,102173.78
2022-10-18T21:27:57.649Z,102168.47
2022-10-18T21:30:37.273Z,102163.16
2022-10-18T21:33:32.171Z,102165.81
2022-10-18T21:36:10.969Z,102162.75
2022-10-18T21:38:51.215Z,102161.66
2022-10-18T21:41:31.431Z,102160.09
2022-10-18T21:44:11.721Z,102173.50
2022-10-18T21:46:50.958Z,102163.72
2022-10-18T21:49:35.066Z,102164.56
2022-10-18T21:52:14.577Z,102165.28
2022-10-18T21:54:53.557Z,102159.00
2022-10-18T22:00:22.580Z,102168.69
2022-10-18T22:03:12.088Z,102170.16
2022-10-18T22:05:58.687Z,102164.72
2022-10-18T22:08:38.157Z,102169.81
2022-10-18T22:11:18.207Z,102176.56
2022-10-18T22:13:57.798Z,102172.09
2022-10-18T22:16:37.599Z,102164.84
2022-10-18T22:19:18.644Z,102161.72
2022-10-18T22:21:58.227Z,102168.63
2022-10-18T22:24:37.049Z,102172.00
2022-10-18T22:27:16.802Z,102166.69
2022-10-18T22:29:56.624Z,102166.44
2022-10-18T22:32:38.420Z,102161.72
2022-10-18T22:35:19.852Z,102157.25
2022-10-18T22:37:59.204Z,102156.38
2022-10-18T22:40:39.057Z,102150.94
2022-10-18T22:43:20.912Z,102148.28
2022-10-18T22:46:03.366Z,102151.78
2022-10-18T22:48:43.333Z,102146.47
2022-10-18T22:51:23.127Z,102131.72
2022-10-18T22:54:02.892Z,102140.78
2022-10-18T22:56:43.319Z,102135.00
2022-10-18T22:59:21.787Z,102127.25
2022-10-18T23:02:02.710Z,102116.13
2022-10-18T23:04:42.063Z,102114.06
2022-10-18T23:07:21.871Z,102104.66
2022-10-18T23:10:03.794Z,102100.75
2022-10-18T23:12:43.231Z,102106.31
2022-10-18T23:15:22.291Z,102105.94
2022-10-18T23:18:02.131Z,102100.97
2022-10-18T23:20:40.114Z,102102.19
2022-10-18T23:23:20.127Z,102099.88
2022-10-18T23:25:59.015Z,102095.66
2022-10-18T23:28:38.449Z,102099.50
2022-10-18T23:31:19.124Z,102098.88
2022-10-18T23:33:59.185Z,102102.84
2022-10-18T23:36:38.327Z,102109.38
2022-10-18T23:39:18.041Z,102104.31
2022-10-18T23:41:57.309Z,102103.91
2022-10-18T23:44:38.003Z,102107.03
2022-10-18T23:47:17.440Z,102110.78
2022-10-18T23:49:59.301Z,102106.66
2022-10-18T23:52:37.844Z,102109.31
2022-10-18T23:55:16.165Z,102119.09
2022-10-18T23:57:55.038Z,102107.50
